createdAt,value
2022-09-12T00:01:06.915Z,101421.97
2022-09-12T00:03:36.894Z,101402.31
2022-09-12T00:06:10.269Z,101404.13
2022-09-12T00:08:41.390Z,101420.88
2022-09-12T00:11:14.238Z,101393.22
2022-09-12T00:13:47.106Z,101428.09
2022-09-12T00:16:24.196Z,101397.22
2022-09-12T00:18:55.337Z,101398.25
2022-09-12T00:21:25.524Z,101426.53
2022-09-12T00:23:54.745Z,101401.81
2022-09-12T00:26:25.292Z,101431.03
2022-09-12T00:28:58.083Z,101434.59
2022-09-12T00:31:31.523Z,101397.16
2022-09-12T00:34:01.987Z,101399.75
2022-09-12T00:36:36.722Z,101433.19
2022-09-12T00:39:08.068Z,101429.72
2022-09-12T00:41:41.278Z,101431.25
2022-09-12T00:44:48.064Z,101406.50
2022-09-12T00:47:25.963Z,101409.28
2022-09-12T00:50:01.571Z,101424.78
2022-09-12T00:52:37.789Z,101419.06
2022-09-12T00:55:11.504Z,101400.09
2022-09-12T00:57:47.871Z,101397.31
2022-09-12T01:00:21.021Z,101422.09
2022-09-12T01:02:57.948Z,101414.94
2022-09-12T01:05:32.836Z,101422.66
2022-09-12T01:08:05.558Z,101409.56
2022-09-12T01:10:37.473Z,101402.72
2022-09-12T01:13:10.319Z,101415.13
2022-09-12T01:15:42.361Z,101388.13
2022-09-12T01:18:20.533Z,101412.41
2022-09-12T01:21:01.817Z,101402.13
2022-09-12T01:24:04.616Z,101392.53
2022-09-12T01:26:54.012Z,101406.56
2022-09-12T01:29:47.457Z,101392.44
2022-09-12T01:32:27.336Z,101410.84
2022-09-12T01:35:07.906Z,101403.88
2022-09-12T01:37:44.466Z,101386.16
2022-09-12T01:40:23.449Z,101396.75
2022-09-12T01:43:04.507Z,101388.00
2022-09-12T01:45:42.738Z,101382.66
2022-09-12T01:48:18.677Z,101382.03
2022-09-12T01:50:55.387Z,101382.66
2022-09-12T01:53:28.928Z,101403.22
2022-09-12T01:56:07.032Z,101374.88
2022-09-12T01:58:46.062Z,101396.09
2022-09-12T02:01:32.503Z,101405.88
2022-09-12T02:04:16.427Z,101401.84
2022-09-12T02:07:00.033Z,101402.25
2022-09-12T02:09:37.475Z,101403.72
2022-09-12T02:12:16.517Z,101403.97
2022-09-12T02:14:52.098Z,101399.94
2022-09-12T02:17:29.108Z,101412.13
2022-09-12T02:20:06.002Z,101403.72
2022-09-12T02:22:42.644Z,101395.91
2022-09-12T02:25:15.436Z,101392.63
2022-09-12T02:27:54.545Z,101416.50
2022-09-12T02:30:27.121Z,101402.44
2022-09-12T02:33:05.407Z,101405.78
2022-09-12T02:35:48.799Z,101386.06
2022-09-12T02:38:31.323Z,101400.25
2022-09-12T02:41:05.876Z,101355.88
2022-09-12T02:43:47.315Z,101358.19
2022-09-12T02:46:27.127Z,101387.47
2022-09-12T02:48:59.004Z,101383.25
2022-09-12T02:54:58.361Z,101393.84
2022-09-12T02:57:26.635Z,101396.06
2022-09-12T03:00:02.165Z,101401.13
2022-09-12T03:02:41.011Z,101396.47
2022-09-12T03:05:27.807Z,101401.28
2022-09-12T03:08:22.717Z,101399.88
2022-09-12T03:11:14.831Z,101395.28
2022-09-12T03:13:57.154Z,101400.91
2022-09-12T03:16:37.262Z,101402.50
2022-09-12T03:19:13.164Z,101403.66
2022-09-12T03:21:56.215Z,101401.06
2022-09-12T03:24:33.043Z,101401.56
2022-09-12T03:27:13.301Z,101390.19
2022-09-12T03:29:43.196Z,101390.75
2022-09-12T03:32:13.218Z,101400.75
2022-09-12T03:34:42.994Z,101385.28
2022-09-12T03:37:11.018Z,101399.75
2022-09-12T03:39:41.116Z,101395.94
2022-09-12T03:42:12.219Z,101382.03
2022-09-12T03:44:40.070Z,101384.41
2022-09-12T03:47:11.355Z,101381.69
2022-09-12T03:49:41.165Z,101386.88
2022-09-12T03:52:09.212Z,101388.47
2022-09-12T03:54:39.628Z,101383.41
2022-09-12T03:57:11.055Z,101395.50
2022-09-12T03:59:38.873Z,101383.53
2022-09-12T04:02:06.720Z,101392.69
2022-09-12T04:04:38.459Z,101385.56
2022-09-12T04:07:06.306Z,101388.22
2022-09-12T04:09:34.182Z,101392.69
2022-09-12T04:12:06.472Z,101398.53
2022-09-12T04:14:35.767Z,101387.56
2022-09-12T04:17:03.658Z,101391.88
2022-09-12T04:19:33.293Z,101388.63
2022-09-12T04:22:01.161Z,101394.09
2022-09-12T04:24:28.942Z,101380.38
2022-09-12T04:27:04.810Z,101392.31
2022-09-12T04:29:36.723Z,101389.13
2022-09-12T04:32:06.939Z,101387.50
2022-09-12T04:34:37.272Z,101395.72
2022-09-12T04:37:05.327Z,101386.84
2022-09-12T04:39:37.441Z,101385.47
2022-09-12T04:42:05.837Z,101390.03
2022-09-12T04:44:33.662Z,101394.31
2022-09-12T04:47:06.642Z,101394.13
2022-09-12T04:49:35.475Z,101395.72
2022-09-12T04:52:03.821Z,101396.31
2022-09-12T04:54:36.211Z,101406.34
2022-09-12T04:57:04.047Z,101405.28
2022-09-12T04:59:34.255Z,101403.09
2022-09-12T05:04:47.556Z,101399.47
2022-09-12T05:07:17.327Z,101390.63
2022-09-12T05:09:45.098Z,101396.19
2022-09-12T05:12:14.963Z,101388.13
2022-09-12T05:14:44.783Z,101378.28
2022-09-12T05:17:13.998Z,101387.28
2022-09-12T05:19:43.974Z,101388.19
2022-09-12T05:22:13.811Z,101380.78
2022-09-12T05:24:47.268Z,101381.31
2022-09-12T05:27:22.236Z,101381.22
2022-09-12T05:29:52.563Z,101371.97
2022-09-12T05:32:21.877Z,101380.59
2022-09-12T05:34:51.730Z,101385.06
2022-09-12T05:37:19.666Z,101382.06
2022-09-12T05:39:47.523Z,101382.81
2022-09-12T05:42:17.250Z,101388.66
2022-09-12T05:44:47.229Z,101394.63
2022-09-12T05:47:17.429Z,101383.91
2022-09-12T05:49:50.272Z,101391.78
2022-09-12T05:52:20.347Z,101387.59
2022-09-12T05:54:49.706Z,101395.19
2022-09-12T05:57:19.563Z,101376.16
2022-09-12T05:59:49.814Z,101374.81
2022-09-12T06:02:19.914Z,101382.75
2022-09-12T06:04:51.085Z,101381.06
2022-09-12T06:07:19.029Z,101391.03
2022-09-12T06:09:48.959Z,101386.31
2022-09-12T06:12:18.826Z,101388.06
2022-09-12T06:14:46.635Z,101388.38
2022-09-12T06:17:18.531Z,101388.69
2022-09-12T06:19:46.511Z,101382.25
2022-09-12T06:22:15.732Z,101375.81
2022-09-12T06:24:47.654Z,101398.88
2022-09-12T06:27:15.528Z,101387.75
2022-09-12T06:29:43.332Z,101391.25
2022-09-12T06:32:15.124Z,101392.34
2022-09-12T06:34:43.048Z,101390.84
2022-09-12T06:37:11.282Z,101384.88
2022-09-12T06:39:44.574Z,101397.00
2022-09-12T06:42:13.984Z,101389.94
2022-09-12T06:44:44.748Z,101386.09
2022-09-12T06:47:14.844Z,101382.22
2022-09-12T06:49:42.791Z,101372.69
2022-09-12T06:52:12.765Z,101373.63
2022-09-12T06:54:44.113Z,101370.88
2022-09-12T06:57:11.818Z,101369.09
2022-09-12T06:59:42.545Z,101371.78
2022-09-12T07:02:12.360Z,101356.44
2022-09-12T07:04:40.296Z,101352.09
2022-09-12T07:07:08.169Z,101351.41
2022-09-12T07:09:36.159Z,101362.56
2022-09-12T07:12:06.258Z,101361.53
2022-09-12T07:14:36.244Z,101361.88
2022-09-12T07:17:06.045Z,101352.72
2022-09-12T07:19:36.071Z,101363.69
2022-09-12T07:22:09.224Z,101362.53
2022-09-12T07:24:40.168Z,101358.88
2022-09-12T07:27:10.005Z,101364.81
2022-09-12T07:29:39.692Z,101375.63
2022-09-12T07:32:09.884Z,101353.50
2022-09-12T07:34:39.813Z,101364.00
2022-09-12T07:37:09.555Z,101350.84
2022-09-12T07:39:37.946Z,101362.19
2022-09-12T07:42:07.060Z,101367.09
2022-09-12T07:44:38.089Z,101366.88
2022-09-12T07:54:47.469Z,101367.06
2022-09-12T07:57:15.850Z,101372.88
2022-09-12T07:59:53.038Z,101365.28
2022-09-12T08:02:21.563Z,101365.56
2022-09-12T08:04:51.510Z,101368.47
2022-09-12T08:07:21.490Z,101364.53
2022-09-12T08:09:51.258Z,101351.28
2022-09-12T08:12:20.300Z,101367.44
2022-09-12T08:14:51.264Z,101358.50
2022-09-12T08:17:19.177Z,101359.50
2022-09-12T08:19:47.582Z,101363.63
2022-09-12T08:22:23.939Z,101360.69
2022-09-12T08:24:51.865Z,101357.19
2022-09-12T08:27:21.905Z,101348.16
2022-09-12T08:29:52.932Z,101359.56
2022-09-12T08:32:20.713Z,101357.44
2022-09-12T08:34:50.558Z,101355.50
2022-09-12T08:37:20.272Z,101361.03
2022-09-12T08:39:48.108Z,101343.94
2022-09-12T08:42:29.556Z,101352.41
2022-09-12T08:45:10.286Z,101341.63
2022-09-12T08:47:44.650Z,101359.34
2022-09-12T08:50:17.748Z,101357.56
2022-09-12T08:52:55.790Z,101355.84
2022-09-12T08:55:34.997Z,101346.38
2022-09-12T08:58:16.253Z,101350.31
2022-09-12T09:00:52.646Z,101339.47
2022-09-12T09:03:38.962Z,101348.63
2022-09-12T09:06:18.297Z,101342.50
2022-09-12T09:09:03.858Z,101347.06
2022-09-12T09:12:01.464Z,101342.72
2022-09-12T09:14:50.885Z,101326.94
2022-09-12T09:17:28.590Z,101340.31
2022-09-12T09:20:06.969Z,101332.41
2022-09-12T09:22:42.417Z,101336.66
2022-09-12T09:25:22.906Z,101330.94
2022-09-12T09:27:58.413Z,101324.81
2022-09-12T09:30:30.885Z,101319.25
2022-09-12T09:33:04.088Z,101325.34
2022-09-12T09:35:46.837Z,101308.00
2022-09-12T09:38:24.878Z,101311.25
2022-09-12T09:46:21.465Z,101296.19
2022-09-12T09:48:52.194Z,101310.84
2022-09-12T09:51:36.754Z,101305.66
2022-09-12T09:54:14.991Z,101297.44
2022-09-12T09:56:50.875Z,101306.31
2022-09-12T09:59:22.686Z,101284.00
2022-09-12T10:01:57.904Z,101305.25
2022-09-12T10:04:29.977Z,101315.50
2022-09-12T10:07:02.257Z,101307.75
2022-09-12T10:09:35.559Z,101311.16
2022-09-12T10:12:24.916Z,101310.19
2022-09-12T10:15:02.831Z,101300.09
2022-09-12T10:17:45.001Z,101299.09
2022-09-12T10:20:35.001Z,101302.50
2022-09-12T10:23:11.297Z,101297.13
2022-09-12T10:25:40.722Z,101288.94
2022-09-12T10:28:43.559Z,101284.59
2022-09-12T10:31:17.015Z,101268.19
2022-09-12T10:33:55.005Z,101272.31
2022-09-12T10:36:27.804Z,101281.31
2022-09-12T10:39:04.283Z,101284.94
2022-09-12T10:41:39.446Z,101278.59
2022-09-12T10:44:18.741Z,101275.69
2022-09-12T10:46:48.603Z,101275.16
2022-09-12T10:49:26.708Z,101277.47
2022-09-12T10:51:57.343Z,101275.06
2022-09-12T10:54:29.733Z,101278.00
2022-09-12T10:57:30.286Z,101276.34
2022-09-12T11:00:10.648Z,101277.97
2022-09-12T11:02:50.846Z,101265.16
2022-09-12T11:05:39.392Z,101278.72
2022-09-12T11:08:43.237Z,101274.94
2022-09-12T11:15:10.108Z,101282.34
2022-09-12T11:17:51.178Z,101276.59
2022-09-12T11:20:43.548Z,101274.75
2022-09-12T11:24:09.288Z,101276.84
2022-09-12T11:27:04.310Z,101268.38
2022-09-12T11:30:27.744Z,101267.19
2022-09-12T11:33:30.012Z,101270.06
2022-09-12T11:37:01.569Z,101264.59
2022-09-12T11:39:43.193Z,101275.22
2022-09-12T11:46:21.987Z,101265.00
2022-09-12T11:48:56.174Z,101270.16
2022-09-12T11:51:54.293Z,101266.75
2022-09-12T11:54:28.316Z,101249.97
2022-09-12T11:57:29.640Z,101261.00
2022-09-12T12:00:23.363Z,101257.31
2022-09-12T12:03:16.079Z,101260.41
2022-09-12T12:05:53.917Z,101258.97
2022-09-12T12:08:28.732Z,101243.03
2022-09-12T12:11:00.713Z,101244.47
2022-09-12T12:13:35.775Z,101249.53
2022-09-12T12:16:17.831Z,101241.66
2022-09-12T12:18:54.025Z,101250.44
2022-09-12T12:21:43.163Z,101244.91
2022-09-12T12:24:16.661Z,101251.47
2022-09-12T12:27:02.265Z,101233.31
2022-09-12T12:34:51.434Z,101237.97
2022-09-12T12:38:27.956Z,101245.44
2022-09-12T12:57:40.616Z,101223.28
2022-09-12T13:00:33.367Z,101226.44
2022-09-12T13:03:23.405Z,101217.19
2022-09-12T13:06:04.513Z,101209.13
2022-09-12T13:08:49.589Z,101212.00
2022-09-12T13:18:52.269Z,101214.25
2022-09-12T13:24:54.290Z,101194.50
2022-09-12T13:27:26.185Z,101210.22
2022-09-12T13:30:11.070Z,101207.03
2022-09-12T13:32:39.432Z,101217.06
2022-09-12T13:35:19.005Z,101207.53
2022-09-12T13:37:54.641Z,101195.63
2022-09-12T13:40:35.138Z,101195.91
2022-09-12T13:43:15.089Z,101200.59
2022-09-12T13:45:46.684Z,101187.88
2022-09-12T13:48:19.775Z,101184.25
2022-09-12T13:50:54.898Z,101177.75
2022-09-12T13:53:30.188Z,101184.84
2022-09-12T13:56:00.825Z,101188.28
2022-09-12T13:58:33.522Z,101184.47
2022-09-12T14:01:07.053Z,101187.06
2022-09-12T14:03:59.285Z,101181.25
2022-09-12T14:06:29.555Z,101175.19
2022-09-12T14:09:02.305Z,101192.53
2022-09-12T14:11:39.054Z,101194.59
2022-09-12T14:14:22.081Z,101181.38
2022-09-12T14:16:56.630Z,101189.28
2022-09-12T14:19:29.220Z,101178.25
2022-09-12T14:22:01.318Z,101183.41
2022-09-12T14:24:33.325Z,101169.72
2022-09-12T14:27:04.051Z,101183.56
2022-09-12T14:29:34.758Z,101184.25
2022-09-12T14:32:08.071Z,101179.69
2022-09-12T14:34:38.093Z,101182.47
2022-09-12T14:37:17.112Z,101178.38
2022-09-12T14:39:56.099Z,101164.94
2022-09-12T14:42:34.157Z,101173.19
2022-09-12T14:45:15.783Z,101174.97
2022-09-12T14:47:56.737Z,101176.28
2022-09-12T14:50:33.557Z,101170.16
2022-09-12T14:53:10.829Z,101167.59
2022-09-12T14:55:54.635Z,101171.22
2022-09-12T14:59:36.504Z,101166.63
2022-09-12T15:02:57.808Z,101166.56
2022-09-12T15:05:32.843Z,101153.84
2022-09-12T15:08:19.241Z,101151.38
2022-09-12T15:10:55.385Z,101159.75
2022-09-12T15:13:42.159Z,101138.47
2022-09-12T15:16:34.073Z,101151.16
2022-09-12T15:19:04.541Z,101148.81
2022-09-12T15:25:14.575Z,101146.28
2022-09-12T15:27:44.432Z,101130.59
2022-09-12T15:30:14.558Z,101121.00
2022-09-12T15:32:46.662Z,101122.88
2022-09-12T15:35:18.120Z,101130.13
2022-09-12T15:37:47.258Z,101120.88
2022-09-12T15:40:16.524Z,101124.34
2022-09-12T15:42:45.874Z,101112.22
2022-09-12T15:45:23.141Z,101137.72
2022-09-12T15:47:52.177Z,101139.28
2022-09-12T15:50:23.096Z,101111.38
2022-09-12T15:52:54.170Z,101111.81
2022-09-12T15:55:26.105Z,101133.63
2022-09-12T15:57:57.841Z,101120.22
2022-09-12T16:00:26.953Z,101110.91
2022-09-12T16:02:56.339Z,101121.41
2022-09-12T16:05:29.084Z,101123.16
2022-09-12T16:07:57.990Z,101122.25
2022-09-12T16:10:29.104Z,101113.66
2022-09-12T16:13:00.133Z,101117.38
2022-09-12T16:15:28.646Z,101145.06
2022-09-12T16:17:57.215Z,101136.25
2022-09-12T16:20:28.679Z,101139.97
2022-09-12T16:22:56.983Z,101140.38
2022-09-12T16:25:26.010Z,101135.19
2022-09-12T16:28:00.774Z,101139.53
2022-09-12T16:30:29.641Z,101107.19
2022-09-12T16:32:58.439Z,101104.41
2022-09-12T16:35:27.359Z,101132.78
2022-09-12T16:37:56.038Z,101102.16
2022-09-12T16:40:26.944Z,101102.75
2022-09-12T16:42:58.457Z,101097.50
2022-09-12T16:45:30.612Z,101123.00
2022-09-12T16:48:01.739Z,101099.56
2022-09-12T16:50:30.617Z,101100.94
2022-09-12T16:53:01.225Z,101118.75
2022-09-12T16:55:32.485Z,101096.00
2022-09-12T16:58:01.594Z,101102.47
2022-09-12T17:00:37.716Z,101083.81
2022-09-12T17:03:07.293Z,101106.44
2022-09-12T17:05:41.571Z,101115.31
2022-09-12T17:08:13.274Z,101093.66
2022-09-12T17:10:45.473Z,101095.53
2022-09-12T17:13:14.461Z,101106.91
2022-09-12T17:15:50.001Z,101083.31
2022-09-12T17:18:20.595Z,101087.31
2022-09-12T17:20:52.519Z,101083.84
2022-09-12T17:23:21.786Z,101085.00
2022-09-12T17:25:54.083Z,101085.06
2022-09-12T17:28:23.584Z,101104.44
2022-09-12T17:31:02.654Z,101103.41
2022-09-12T17:33:33.076Z,101111.63
2022-09-12T17:36:03.088Z,101100.44
2022-09-12T17:38:37.657Z,101078.47
2022-09-12T17:41:13.093Z,101077.81
2022-09-12T17:43:43.183Z,101093.31
2022-09-12T17:46:15.983Z,101084.44
2022-09-12T17:48:46.169Z,101068.50
2022-09-12T17:51:18.159Z,101066.41
2022-09-12T17:53:49.545Z,101067.25
2022-09-12T17:56:19.795Z,101074.41
2022-09-12T17:58:50.627Z,101068.69
2022-09-12T18:01:40.408Z,101077.09
2022-09-12T18:04:11.203Z,101074.75
2022-09-12T18:06:48.587Z,101093.72
2022-09-12T18:09:22.985Z,101064.09
2022-09-12T18:11:57.699Z,101090.31
2022-09-12T18:14:28.465Z,101062.78
2022-09-12T18:17:05.802Z,101069.63
2022-09-12T18:19:36.121Z,101076.41
2022-09-12T18:22:12.518Z,101063.91
2022-09-12T18:24:44.175Z,101063.06
2022-09-12T18:27:19.275Z,101075.84
2022-09-12T18:30:10.291Z,101065.59
2022-09-12T18:32:47.502Z,101066.06
2022-09-12T18:35:17.812Z,101061.09
2022-09-12T18:37:53.659Z,101062.19
2022-09-12T18:40:24.405Z,101079.56
2022-09-12T18:43:00.799Z,101052.53
2022-09-12T18:45:32.740Z,101038.66
2022-09-12T18:48:10.538Z,101049.38
2022-09-12T18:50:41.060Z,101048.69
2022-09-12T18:53:15.906Z,101058.59
2022-09-12T18:55:49.223Z,101043.72
2022-09-12T18:58:24.238Z,101032.44
2022-09-12T19:00:55.291Z,101048.22
2022-09-12T19:03:29.756Z,101058.94
2022-09-12T19:06:02.832Z,101052.47
2022-09-12T19:08:39.118Z,101026.66
2022-09-12T19:11:10.599Z,101016.91
2022-09-12T19:13:48.430Z,101016.34
2022-09-12T19:16:29.541Z,101018.22
2022-09-12T19:19:07.248Z,101024.78
2022-09-12T19:21:45.818Z,101018.88
2022-09-12T19:28:36.902Z,101010.72
2022-09-12T19:31:51.269Z,101038.22
2022-09-12T20:14:25.764Z,101002.63
2022-09-12T21:23:49.255Z,100929.38
2022-09-12T22:32:32.753Z,100838.22
2022-09-12T22:43:09.542Z,100836.34
2022-09-12T22:46:31.408Z,100850.56
2022-09-12T23:12:34.668Z,100803.69
2022-09-12T23:15:19.358Z,100784.63
2022-09-12T23:17:59.924Z,100790.13
2022-09-12T23:20:44.378Z,100792.47
2022-09-12T23:23:30.053Z,100782.56
2022-09-12T23:26:15.825Z,100778.47
2022-09-12T23:29:00.474Z,100788.34
2022-09-12T23:31:40.638Z,100788.06
2022-09-12T23:34:22.394Z,100770.16
2022-09-12T23:36:59.934Z,100764.81
2022-09-12T23:39:43.954Z,100772.94
2022-09-12T23:42:16.032Z,100766.94
2022-09-12T23:44:53.785Z,100776.75
2022-09-12T23:47:37.106Z,100758.31
2022-09-12T23:50:24.519Z,100747.91
2022-09-12T23:53:12.047Z,100746.97
2022-09-12T23:55:55.054Z,100739.56
2022-09-12T23:58:33.498Z,100759.47
